Terminal Aerodrome Forecast
Issued by NWS Spokane, WA

Home | Current Version | Previous Version | Text Only | Print | Product List | Glossary On
Versions: 1 2 3 4 5 6 7 8 9 10 11 12 13 14 15 16 17 18 19 20 21 22 23 24 25 26 27 28 29 30 31 32 33 34 35 36 37 38
419
FTUS46 KOTX 061053 AAC
TAFEAT
TAF AMD
KEAT 061053Z 0611/0706 25007KT 2SM -SN BR SCT005 OVC022
     FM061330 32007KT P6SM VCSH SCT015 BKN060
     FM061800 30007KT P6SM FEW060 SCT100=

USA.gov is the U.S. government's official web portal to all federal, state and local government web resources and services.